createdAt,value
2023-04-19T00:02:54.443Z,21.98
2023-04-19T00:05:41.842Z,21.98
2023-04-19T00:08:28.548Z,21.97
2023-04-19T00:11:15.361Z,21.97
2023-04-19T00:14:02.381Z,21.96
2023-04-19T00:16:49.350Z,21.95
2023-04-19T00:19:36.208Z,21.94
2023-04-19T00:22:23.114Z,21.93
2023-04-19T00:25:10.125Z,21.93
2023-04-19T00:27:57.045Z,21.92
2023-04-19T00:30:43.808Z,21.92
2023-04-19T00:33:31.051Z,21.91
2023-04-19T00:36:17.790Z,21.90
2023-04-19T00:39:08.094Z,21.90
2023-04-19T00:41:57.860Z,21.89
2023-04-19T00:44:44.990Z,21.88
2023-04-19T00:47:32.091Z,21.87
2023-04-19T00:50:19.417Z,21.87
2023-04-19T00:53:08.077Z,21.86
2023-04-19T00:56:00.720Z,21.86
2023-04-19T00:58:48.832Z,21.85
2023-04-19T01:01:35.715Z,21.84
2023-04-19T01:04:23.180Z,21.84
2023-04-19T01:07:11.152Z,21.84
2023-04-19T01:09:58.368Z,21.83
2023-04-19T01:12:45.282Z,21.83
2023-04-19T01:15:32.441Z,21.82
2023-04-19T01:18:19.724Z,21.81
2023-04-19T01:21:07.449Z,21.81
2023-04-19T01:23:54.166Z,21.80
2023-04-19T01:26:42.312Z,21.79
2023-04-19T01:29:29.452Z,21.78
2023-04-19T01:32:17.578Z,21.77
2023-04-19T01:35:06.323Z,21.77
2023-04-19T01:37:56.518Z,21.76
2023-04-19T01:40:44.242Z,21.76
2023-04-19T01:43:31.167Z,21.75
2023-04-19T01:46:18.053Z,21.75
2023-04-19T01:49:05.412Z,21.74
2023-04-19T01:51:52.709Z,21.74
2023-04-19T01:54:40.405Z,21.73
2023-04-19T01:57:27.296Z,21.72
2023-04-19T02:00:15.480Z,21.71
2023-04-19T02:03:02.224Z,21.70
2023-04-19T02:05:49.539Z,21.70
2023-04-19T02:08:36.455Z,21.68
2023-04-19T02:11:24.968Z,21.68
2023-04-19T02:14:11.919Z,21.67
2023-04-19T02:16:59.035Z,21.66
2023-04-19T02:19:45.951Z,21.66
2023-04-19T02:22:33.071Z,21.65
2023-04-19T02:25:20.295Z,21.64
2023-04-19T02:28:07.506Z,21.63
2023-04-19T02:30:54.530Z,21.63
2023-04-19T02:33:41.746Z,21.62
2023-04-19T02:36:28.867Z,21.61
2023-04-19T02:39:17.012Z,21.60
2023-04-19T02:42:04.537Z,21.59
2023-04-19T02:44:52.826Z,21.58
2023-04-19T02:47:43.827Z,21.57
2023-04-19T02:50:32.133Z,21.56
2023-04-19T02:53:19.043Z,21.56
2023-04-19T02:56:08.111Z,21.55
2023-04-19T02:58:55.256Z,21.54
2023-04-19T03:01:42.168Z,21.54
2023-04-19T03:04:29.565Z,21.53
2023-04-19T03:07:16.579Z,21.52
2023-04-19T03:10:03.706Z,21.51
2023-04-19T03:12:51.330Z,21.50
2023-04-19T03:15:38.989Z,21.50
2023-04-19T03:18:27.181Z,21.49
2023-04-19T03:21:14.931Z,21.49
2023-04-19T03:24:09.328Z,21.48
2023-04-19T03:26:58.496Z,21.48
2023-04-19T03:29:49.007Z,21.47
2023-04-19T03:32:36.444Z,21.47
2023-04-19T03:35:26.407Z,21.46
2023-04-19T03:38:14.555Z,21.45
2023-04-19T03:41:02.787Z,21.45
2023-04-19T03:43:53.401Z,21.45
2023-04-19T03:46:40.747Z,21.44
2023-04-19T03:49:28.542Z,21.44
2023-04-19T03:52:22.619Z,21.44
2023-04-19T03:55:12.734Z,21.43
2023-04-19T03:58:00.747Z,21.43
2023-04-19T04:01:18.894Z,21.43
2023-04-19T04:04:06.189Z,21.42
2023-04-19T04:06:53.428Z,21.43
2023-04-19T04:09:40.942Z,21.44
2023-04-19T04:12:28.483Z,21.45
2023-04-19T04:15:15.828Z,21.45
2023-04-19T04:18:09.015Z,21.45
2023-04-19T04:20:56.971Z,21.45
2023-04-19T04:23:48.246Z,21.45
2023-04-19T04:26:41.182Z,21.44
2023-04-19T04:29:49.858Z,21.44
2023-04-19T04:32:38.522Z,21.43
2023-04-19T04:35:26.277Z,21.43
2023-04-19T04:38:24.540Z,21.45
2023-04-19T04:41:13.250Z,21.47
2023-04-19T04:46:51.175Z,21.50
2023-04-19T04:49:43.544Z,21.50
2023-04-19T04:52:30.420Z,21.50
2023-04-19T04:55:23.892Z,21.50
2023-04-19T04:58:11.108Z,21.50
2023-04-19T05:01:27.312Z,21.49
2023-04-19T05:04:15.139Z,21.48
2023-04-19T05:07:03.993Z,21.48
2023-04-19T05:09:51.599Z,21.47
2023-04-19T05:12:42.718Z,21.46
2023-04-19T05:15:29.838Z,21.46
2023-04-19T05:18:17.314Z,21.45
2023-04-19T05:21:04.653Z,21.45
2023-04-19T05:23:53.537Z,21.44
2023-04-19T05:26:41.108Z,21.44
2023-04-19T05:29:28.338Z,21.44
2023-04-19T05:32:15.958Z,21.43
2023-04-19T05:35:08.957Z,21.43
2023-04-19T05:37:56.371Z,21.43
2023-04-19T05:40:44.440Z,21.43
2023-04-19T05:43:31.148Z,21.43
2023-04-19T05:46:18.649Z,21.43
2023-04-19T05:49:05.968Z,21.43
2023-04-19T05:52:05.295Z,21.42
2023-04-19T05:55:18.295Z,21.41
2023-04-19T05:58:05.460Z,21.40
2023-04-19T06:00:52.510Z,21.40
2023-04-19T06:03:39.993Z,21.40
2023-04-19T06:06:27.549Z,21.40
2023-04-19T06:09:15.249Z,21.40
2023-04-19T06:12:02.077Z,21.40
2023-04-19T06:14:49.366Z,21.40
2023-04-19T06:17:36.568Z,21.40
2023-04-19T06:20:23.690Z,21.40
2023-04-19T06:23:13.044Z,21.41
2023-04-19T06:25:59.854Z,21.40
2023-04-19T06:28:46.724Z,21.41
2023-04-19T06:31:34.087Z,21.41
2023-04-19T06:34:21.348Z,21.42
2023-04-19T06:37:07.913Z,21.42
2023-04-19T06:39:54.627Z,21.43
2023-04-19T06:42:41.176Z,21.43
2023-04-19T06:45:28.100Z,21.44
2023-04-19T06:48:15.014Z,21.46
2023-04-19T06:51:02.013Z,21.47
2023-04-19T06:53:51.009Z,21.48
2023-04-19T06:56:42.319Z,21.49
2023-04-19T06:59:31.722Z,21.50
2023-04-19T07:02:18.622Z,21.51
2023-04-19T07:05:06.091Z,21.52
2023-04-19T07:07:53.200Z,21.53
2023-04-19T07:10:40.019Z,21.54
2023-04-19T07:13:26.794Z,21.56
2023-04-19T07:16:14.944Z,21.56
2023-04-19T07:19:01.850Z,21.57
2023-04-19T07:21:49.387Z,21.59
2023-04-19T07:24:36.615Z,21.61
2023-04-19T07:27:23.415Z,21.64
2023-04-19T07:30:11.309Z,21.65
2023-04-19T07:32:58.517Z,21.67
2023-04-19T07:35:45.694Z,21.69
2023-04-19T07:38:33.256Z,21.72
2023-04-19T07:41:20.944Z,21.74
2023-04-19T07:44:08.068Z,21.77
2023-04-19T07:46:55.250Z,21.79
2023-04-19T07:49:44.671Z,21.82
2023-04-19T07:52:31.883Z,21.84
2023-04-19T07:55:19.102Z,21.87
2023-04-19T07:58:06.726Z,21.90
2023-04-19T08:00:53.879Z,21.93
2023-04-19T08:03:41.746Z,21.96
2023-04-19T08:06:30.724Z,21.99
2023-04-19T08:09:18.058Z,22.01
2023-04-19T08:12:05.709Z,22.04
2023-04-19T08:15:03.835Z,22.07
2023-04-19T08:17:57.978Z,22.10
2023-04-19T08:20:49.587Z,22.12
2023-04-19T08:23:47.411Z,22.15
2023-04-19T08:26:35.697Z,22.17
2023-04-19T08:29:23.277Z,22.19
2023-04-19T08:32:12.268Z,22.23
2023-04-19T08:35:01.279Z,22.26
2023-04-19T08:37:49.560Z,22.28
2023-04-19T08:40:41.837Z,22.31
2023-04-19T08:43:33.476Z,22.34
2023-04-19T08:46:23.786Z,22.37
2023-04-19T08:49:11.506Z,22.39
2023-04-19T08:51:59.434Z,22.42
2023-04-19T08:54:46.861Z,22.45
2023-04-19T08:57:34.917Z,22.48
2023-04-19T09:00:22.012Z,22.50
2023-04-19T09:03:09.726Z,22.51
2023-04-19T09:05:57.332Z,22.53
2023-04-19T09:08:44.804Z,22.55
2023-04-19T09:11:40.751Z,22.56
2023-04-19T09:14:29.070Z,22.57
2023-04-19T09:17:16.584Z,22.59
2023-04-19T09:20:05.529Z,22.61
2023-04-19T09:23:06.306Z,22.63
2023-04-19T09:26:22.321Z,22.64
2023-04-19T09:29:08.291Z,22.66
2023-04-19T09:31:59.770Z,22.69
2023-04-19T09:35:00.059Z,22.71
2023-04-19T09:46:37.170Z,22.78
2023-04-19T09:49:37.631Z,22.79
2023-04-19T09:52:34.154Z,22.81
2023-04-19T09:55:27.927Z,22.82
2023-04-19T09:58:17.190Z,22.84
2023-04-19T10:01:14.039Z,22.85
2023-04-19T10:10:05.055Z,22.86
2023-04-19T10:13:16.024Z,22.87
2023-04-19T10:16:18.029Z,22.87
2023-04-19T10:25:13.435Z,22.89
2023-04-19T10:28:00.690Z,22.91
2023-04-19T10:31:05.401Z,22.92
2023-04-19T10:33:53.498Z,22.94
2023-04-19T10:36:40.600Z,22.95
2023-04-19T10:39:45.550Z,22.96
2023-04-19T10:43:11.164Z,22.97
2023-04-19T10:46:25.693Z,22.98
2023-04-19T10:49:13.799Z,23.00
2023-04-19T10:58:07.279Z,23.04
2023-04-19T11:01:33.693Z,23.04
2023-04-19T11:04:30.020Z,23.05
2023-04-19T11:10:31.518Z,23.05
2023-04-19T11:13:18.690Z,23.05
2023-04-19T11:16:09.191Z,23.05
2023-04-19T11:18:56.476Z,23.05
2023-04-19T11:21:46.445Z,23.04
2023-04-19T11:24:35.444Z,23.04
2023-04-19T11:27:22.537Z,23.04
2023-04-19T11:30:12.428Z,23.05
2023-04-19T11:32:59.947Z,23.05
2023-04-19T11:41:30.608Z,23.05
2023-04-19T11:44:20.597Z,23.06
2023-04-19T11:47:07.933Z,23.06
2023-04-19T11:49:58.998Z,23.07
2023-04-19T11:52:49.828Z,23.07
2023-04-19T11:55:37.377Z,23.08
2023-04-19T11:58:29.839Z,23.09
2023-04-19T12:10:10.490Z,23.09
2023-04-19T12:12:58.287Z,23.10
2023-04-19T12:15:47.106Z,23.10
2023-04-19T12:18:50.004Z,23.11
2023-04-19T12:21:36.710Z,23.11
2023-04-19T12:24:23.451Z,23.10
2023-04-19T12:27:11.623Z,23.11
2023-04-19T12:29:58.922Z,23.11
2023-04-19T12:32:46.245Z,23.10
2023-04-19T12:35:34.211Z,23.10
2023-04-19T12:38:21.578Z,23.10
2023-04-19T12:41:08.399Z,23.09
2023-04-19T12:43:55.833Z,23.09
2023-04-19T12:46:42.764Z,23.09
2023-04-19T12:49:29.666Z,23.09
2023-04-19T12:52:16.555Z,23.08
2023-04-19T12:55:03.370Z,23.07
2023-04-19T12:57:50.468Z,23.06
2023-04-19T13:00:37.206Z,23.05
2023-04-19T13:03:24.283Z,23.04
2023-04-19T13:06:14.924Z,23.03
2023-04-19T13:09:11.432Z,23.02
2023-04-19T13:12:01.662Z,23.01
2023-04-19T13:14:51.737Z,23.01
2023-04-19T13:17:38.904Z,23.00
2023-04-19T13:20:26.364Z,22.99
2023-04-19T13:23:13.184Z,22.98
2023-04-19T13:26:00.426Z,22.97
2023-04-19T13:28:47.850Z,22.95
2023-04-19T13:31:34.988Z,22.95
2023-04-19T13:34:21.981Z,22.93
2023-04-19T13:37:08.886Z,22.92
2023-04-19T13:40:04.280Z,22.91
2023-04-19T13:42:57.868Z,22.89
2023-04-19T13:45:45.723Z,22.87
2023-04-19T13:48:33.049Z,22.86
2023-04-19T13:51:19.860Z,22.85
2023-04-19T13:54:06.731Z,22.83
2023-04-19T13:56:53.671Z,22.81
2023-04-19T13:59:40.482Z,22.80
2023-04-19T14:02:28.704Z,22.78
2023-04-19T14:05:15.958Z,22.77
2023-04-19T14:08:03.787Z,22.76
2023-04-19T14:10:51.058Z,22.75
2023-04-19T14:13:37.807Z,22.72
2023-04-19T14:16:25.606Z,22.71
2023-04-19T14:19:12.463Z,22.70
2023-04-19T14:22:00.402Z,22.70
2023-04-19T14:24:47.622Z,22.70
2023-04-19T14:27:34.953Z,22.70
2023-04-19T14:30:22.162Z,22.70
2023-04-19T14:33:10.834Z,22.70
2023-04-19T14:35:58.142Z,22.69
2023-04-19T14:38:45.150Z,22.70
2023-04-19T14:41:32.069Z,22.71
2023-04-19T14:44:19.189Z,22.72
2023-04-19T14:47:06.137Z,22.72
2023-04-19T14:49:52.914Z,22.73
2023-04-19T14:52:40.042Z,22.74
2023-04-19T14:55:28.061Z,22.75
2023-04-19T14:58:14.882Z,22.76
2023-04-19T15:01:11.337Z,22.77
2023-04-19T15:03:58.112Z,22.78
2023-04-19T15:06:46.989Z,22.79
2023-04-19T15:09:33.815Z,22.80
2023-04-19T15:12:21.233Z,22.81
2023-04-19T15:15:08.852Z,22.81
2023-04-19T15:17:55.878Z,22.82
2023-04-19T15:20:43.101Z,22.83
2023-04-19T15:23:30.203Z,22.83
2023-04-19T15:26:17.239Z,22.83
2023-04-19T15:29:04.566Z,22.83
2023-04-19T15:31:51.405Z,22.83
2023-04-19T15:34:37.970Z,22.83
2023-04-19T15:37:24.882Z,22.82
2023-04-19T15:40:14.483Z,22.81
2023-04-19T15:43:01.157Z,22.80
2023-04-19T15:45:48.132Z,22.80
2023-04-19T15:48:34.996Z,22.80
2023-04-19T15:51:22.538Z,22.80
2023-04-19T15:54:12.012Z,22.80
2023-04-19T15:56:59.121Z,22.80
2023-04-19T15:59:46.326Z,22.79
2023-04-19T16:02:34.127Z,22.79
2023-04-19T16:05:22.289Z,22.79
2023-04-19T16:08:21.219Z,22.80
2023-04-19T16:11:08.219Z,22.80
2023-04-19T16:13:55.652Z,22.81
2023-04-19T16:16:43.129Z,22.82
2023-04-19T16:19:29.786Z,22.82
2023-04-19T16:22:16.609Z,22.83
2023-04-19T16:25:03.391Z,22.84
2023-04-19T16:27:50.426Z,22.85
2023-04-19T16:30:37.753Z,22.85
2023-04-19T16:33:24.649Z,22.85
2023-04-19T16:36:11.887Z,22.85
2023-04-19T16:38:58.681Z,22.84
2023-04-19T16:41:45.678Z,22.83
2023-04-19T16:44:32.945Z,22.82
2023-04-19T16:47:19.741Z,22.81
2023-04-19T16:50:07.062Z,22.80
2023-04-19T16:52:53.970Z,22.79
2023-04-19T16:55:40.989Z,22.78
2023-04-19T16:58:28.212Z,22.77
2023-04-19T17:01:15.246Z,22.76
2023-04-19T17:04:02.514Z,22.76
2023-04-19T17:06:49.462Z,22.75
2023-04-19T17:09:36.508Z,22.74
2023-04-19T17:12:23.410Z,22.73
2023-04-19T17:15:11.149Z,22.72
2023-04-19T17:17:58.180Z,22.71
2023-04-19T17:20:45.259Z,22.70
2023-04-19T17:23:32.289Z,22.69
2023-04-19T17:26:19.494Z,22.67
2023-04-19T17:29:06.636Z,22.66
2023-04-19T17:31:54.022Z,22.65
2023-04-19T17:34:40.853Z,22.64
2023-04-19T17:37:27.768Z,22.63
2023-04-19T17:40:15.192Z,22.62
2023-04-19T17:43:02.307Z,22.61
2023-04-19T17:45:49.521Z,22.60
2023-04-19T17:48:36.236Z,22.59
2023-04-19T17:51:23.254Z,22.58
2023-04-19T17:54:10.682Z,22.57
2023-04-19T17:56:59.528Z,22.56
2023-04-19T17:59:46.352Z,22.56
2023-04-19T18:02:34.750Z,22.55
2023-04-19T18:05:22.445Z,22.54
2023-04-19T18:08:10.271Z,22.55
2023-04-19T18:10:57.035Z,22.57
2023-04-19T18:13:46.671Z,22.57
2023-04-19T18:16:35.661Z,22.56
2023-04-19T18:19:24.167Z,22.55
2023-04-19T18:22:11.090Z,22.55
2023-04-19T18:24:57.798Z,22.54
2023-04-19T18:27:45.339Z,22.53
2023-04-19T18:30:32.428Z,22.52
2023-04-19T18:33:19.320Z,22.51
2023-04-19T18:36:06.371Z,22.50
2023-04-19T18:38:53.785Z,22.49
2023-04-19T18:41:41.127Z,22.49
2023-04-19T18:44:49.478Z,22.48
2023-04-19T18:47:35.527Z,22.47
2023-04-19T18:50:22.339Z,22.46
2023-04-19T18:53:09.343Z,22.45
2023-04-19T18:55:59.775Z,22.44
2023-04-19T18:58:46.867Z,22.43
2023-04-19T19:01:34.016Z,22.42
2023-04-19T19:04:37.378Z,22.40
2023-04-19T19:10:22.400Z,22.38
2023-04-19T19:16:11.059Z,22.37
2023-04-19T19:18:58.482Z,22.37
2023-04-19T19:21:47.538Z,22.37
2023-04-19T19:24:37.681Z,22.37
2023-04-19T19:27:24.803Z,22.37
2023-04-19T19:30:12.280Z,22.36
2023-04-19T19:32:59.953Z,22.37
2023-04-19T19:35:46.924Z,22.35
2023-04-19T19:38:37.620Z,22.35
2023-04-19T19:41:55.254Z,22.36
2023-04-19T19:44:31.904Z,22.35
2023-04-19T19:47:18.791Z,22.33
2023-04-19T19:52:57.138Z,22.33
2023-04-19T19:55:43.885Z,22.32
2023-04-19T20:01:22.742Z,22.31
2023-04-19T20:04:10.499Z,22.31
2023-04-19T20:07:28.631Z,22.31
2023-04-19T20:10:10.754Z,22.30
2023-04-19T20:12:58.591Z,22.30
2023-04-19T20:15:47.389Z,22.30
2023-04-19T20:18:35.101Z,22.29
2023-04-19T20:21:22.077Z,22.28
2023-04-19T20:24:09.160Z,22.27
2023-04-19T20:26:55.865Z,22.26
2023-04-19T20:29:42.997Z,22.24
2023-04-19T20:32:30.093Z,22.23
2023-04-19T20:35:17.427Z,22.21
2023-04-19T20:38:04.362Z,22.21
2023-04-19T20:40:51.255Z,22.22
2023-04-19T20:43:39.076Z,22.22
2023-04-19T20:46:26.243Z,22.22
2023-04-19T20:49:13.334Z,22.22
2023-04-19T20:52:00.460Z,22.22
2023-04-19T20:54:47.802Z,22.22
2023-04-19T20:57:34.932Z,22.21
2023-04-19T21:00:21.602Z,22.21
2023-04-19T21:03:08.929Z,22.20
2023-04-19T21:05:55.727Z,22.20
2023-04-19T21:08:42.656Z,22.19
2023-04-19T21:11:29.760Z,22.18
2023-04-19T21:14:16.878Z,22.17
2023-04-19T21:17:04.101Z,22.16
2023-04-19T21:19:51.091Z,22.16
2023-04-19T21:22:42.783Z,22.14
2023-04-19T21:25:29.664Z,22.13
2023-04-19T21:28:16.478Z,22.12
2023-04-19T21:31:03.574Z,22.11
2023-04-19T21:33:50.195Z,22.10
2023-04-19T21:36:37.420Z,22.08
2023-04-19T21:39:24.332Z,22.07
2023-04-19T21:42:11.435Z,22.06
2023-04-19T21:44:58.312Z,22.05
2023-04-19T21:47:46.029Z,22.03
2023-04-19T21:50:33.419Z,22.01
2023-04-19T21:53:21.248Z,22.00
2023-04-19T21:56:08.780Z,21.98
2023-04-19T21:58:55.702Z,21.97
2023-04-19T22:01:42.652Z,21.96
2023-04-19T22:04:31.218Z,21.94
2023-04-19T22:07:18.903Z,21.93
2023-04-19T22:10:07.215Z,21.92
2023-04-19T22:12:58.764Z,21.91
2023-04-19T22:15:46.191Z,21.90
2023-04-19T22:18:34.717Z,21.88
2023-04-19T22:21:21.873Z,21.87
2023-04-19T22:24:09.490Z,21.86
2023-04-19T22:26:57.475Z,21.85
2023-04-19T22:29:44.434Z,21.83
2023-04-19T22:32:31.599Z,21.81
2023-04-19T22:35:19.587Z,21.79
2023-04-19T22:38:08.357Z,21.77
2023-04-19T22:40:54.960Z,21.76
2023-04-19T22:43:41.975Z,21.74
2023-04-19T22:46:29.125Z,21.73
2023-04-19T22:49:16.443Z,21.72
2023-04-19T22:52:04.253Z,21.70
2023-04-19T22:54:51.466Z,21.69
2023-04-19T22:57:38.388Z,21.68
2023-04-19T23:00:26.642Z,21.67
2023-04-19T23:03:13.853Z,21.66
2023-04-19T23:06:03.498Z,21.65
2023-04-19T23:08:51.492Z,21.64
2023-04-19T23:11:39.279Z,21.62
2023-04-19T23:14:26.029Z,21.61
2023-04-19T23:17:14.677Z,21.59
2023-04-19T23:20:01.480Z,21.58
2023-04-19T23:22:48.495Z,21.56
2023-04-19T23:25:35.913Z,21.55
2023-04-19T23:28:22.935Z,21.54
2023-04-19T23:31:09.954Z,21.52
2023-04-19T23:33:56.754Z,21.51
2023-04-19T23:36:43.704Z,21.50
2023-04-19T23:39:30.692Z,21.49
2023-04-19T23:42:17.408Z,21.48
2023-04-19T23:45:06.056Z,21.47
2023-04-19T23:47:53.145Z,21.45
2023-04-19T23:50:40.293Z,21.44
2023-04-19T23:53:27.314Z,21.44
2023-04-19T23:56:14.116Z,21.43
2023-04-19T23:59:01.036Z,21.42
